CST,Max TemperatureF,Mean TemperatureF,Min TemperatureF,Max Dew PointF,MeanDew PointF,Min DewpointF,Max Humidity, Mean Humidity, Min Humidity, Max Sea Level PressureIn, Mean Sea Level PressureIn, Min Sea Level PressureIn, Max VisibilityMiles, Mean VisibilityMiles, Min VisibilityMiles, Max Wind SpeedMPH, Mean Wind SpeedMPH, Max Gust SpeedMPH,PrecipitationIn, CloudCover, Events, WindDirDegrees
2013-1-1,28,22,16,26,21,13,96,86,72,30.34,30.26,30.13,10,6,2,15,11,,0.00,6,,2
2013-1-2,36,25,14,27,20,11,92,83,64,30.35,30.29,30.20,10,8,4,16,5,,0.00,0,,255
2013-1-3,39,27,15,25,19,12,100,83,50,30.51,30.41,30.29,10,7,0,13,1,,0.00,0,Fog,331
2013-1-4,50,34,17,27,23,13,88,66,37,30.48,30.38,30.29,10,10,8,18,6,20,0.00,1,,199
2013-1-5,48,38,26,33,28,20,79,67,46,30.32,30.23,30.14,10,10,10,18,11,23,0.00,4,Rain,216
2013-1-6,48,34,21,25,22,18,92,65,35,30.46,30.37,30.33,10,10,10,8,4,,0.00,0,,227
2013-1-7,52,40,27,29,23,19,72,58,35,30.31,30.20,30.07,10,10,10,21,11,28,0.00,0,,178
2013-1-8,57,44,32,33,30,27,85,64,37,30.18,30.07,29.99,10,10,10,17,10,,0.00,0,,185
2013-1-9,55,42,28,36,31,25,92,65,40,30.41,30.31,30.21,10,10,8,14,6,21,0.01,2,Rain,47
2013-1-10,51,48,44,51,47,37,100,96,66,30.18,29.88,29.78,10,4,0,15,9,23,0.18,8,Fog-Rain,161
2013-1-11,63,54,46,48,44,26,100,74,40,29.83,29.71,29.58,10,10,3,25,16,32,0.00,1,,198
2013-1-12,42,33,23,33,20,12,79,64,54,30.15,30.03,29.86,10,10,9,22,14,30,0.00,5,Snow,359
2013-1-13,30,22,15,11,8,6,74,59,36,30.42,30.31,30.14,10,10,10,15,11,21,0.00,0,,352
2013-1-14,33,22,12,12,9,7,84,61,34,30.53,30.44,30.39,10,10,6,10,3,,0.00,1,,52
2013-1-15,36,27,18,14,11,9,81,56,33,30.39,30.32,30.26,10,8,1,10,4,,0.00,2,,37
2013-1-16,46,30,15,27,19,9,82,67,37,30.25,30.19,30.13,10,10,10,14,3,,0.00,1,,212
2013-1-17,54,40,26,32,28,23,92,68,40,30.54,30.45,30.29,10,10,10,10,6,,0.00,0,,345
2013-1-18,57,44,32,31,30,26,82,57,36,30.46,30.28,30.10,10,10,10,29,13,38,0.00,0,,189
2013-1-19,63,48,34,33,29,24,79,54,27,30.25,30.13,30.07,10,10,10,13,8,,0.00,0,,242
2013-1-20,57,42,27,27,22,11,79,54,32,30.39,30.27,30.17,10,10,10,16,5,24,0.00,0,,56
2013-1-21,39,27,15,14,11,7,74,50,34,30.47,30.40,30.31,10,10,10,14,8,,0.00,0,,43
2013-1-22,48,34,19,21,16,11,71,55,34,30.34,30.27,30.21,10,10,10,10,7,,0.00,0,,115
2013-1-23,59,39,19,37,26,16,89,66,44,30.32,30.23,30.15,10,10,6,14,1,23,0.00,0,,52
2013-1-24,33,30,26,25,18,12,93,71,49,30.36,30.26,30.13,10,9,5,20,12,29,0.00,7,,44
2013-1-25,50,36,21,27,24,20,93,68,38,30.30,30.23,30.16,10,9,4,7,4,,0.00,2,,342
2013-1-26,57,46,34,37,31,24,76,58,37,30.26,30.16,30.05,10,10,10,17,7,23,0.00,4,Rain,142
2013-1-27,68,56,44,56,48,37,100,84,59,30.04,29.89,29.75,10,8,2,26,17,41,0.00,5,,173
2013-1-28,73,65,57,62,57,54,90,75,55,29.85,29.76,29.65,10,10,10,31,19,39,0.00,1,,188
2013-1-29,66,52,37,61,43,33,100,88,81,29.66,29.60,29.52,10,9,5,21,14,29,0.26,7,Rain-Thunderstorm,334
2013-1-30,36,30,23,32,23,18,87,72,56,30.06,29.92,29.63,10,10,10,30,18,38,0.00,5,,320
2013-1-31,37,28,18,25,16,7,85,67,47,30.50,30.24,30.01,10,10,10,23,8,33,0.00,2,,11